.
WxDataArchive / Data Records for 2009-09-30
2009-09-29 September 2009 2009-10-01

Data Records for Wednesday, 30 September 2009

Time	Temp	Chill	HIndex	Humid	Dewpt	 Wind 	HiWind	WindDir	Rain 	Barom 
-----	----	-----	------	-----	-----	------	------	-------	-----	----- 
00:00	48.9	48.9	48.9	84	44.3	0	1	292	0.00	30.035 
00:05	48.9	48.9	48.9	84	44.3	0	3	292	0.00	30.035 
00:10	48.8	48.8	48.8	84	44.2	0	1	292	0.00	30.035 
00:15	48.8	48.8	48.8	85	44.5	0	1	292	0.00	30.032 
00:20	48.6	48.6	48.6	85	44.3	0	1	292	0.00	30.032 
00:25	48.5	48.5	48.5	85	44.2	0	1	292	0.00	30.032 
00:30	48.5	48.5	48.5	85	44.2	0	1	292	0.00	30.024 
00:35	48.5	48.5	48.5	85	44.2	0	1	292	0.00	30.024 
00:40	48.5	48.5	48.5	85	44.2	0	1	292	0.00	30.024 
00:45	48.5	48.5	48.5	85	44.2	0	1	292	0.00	30.024 
00:50	48.3	48.3	48.3	85	44.0	0	1	292	0.00	30.024 
00:55	48.3	48.3	48.3	85	44.0	0	1	292	0.00	30.024 
01:00	48.2	48.2	48.2	86	44.2	0	0	---	0.00	30.028 
01:05	48.0	48.0	48.0	86	44.0	0	0	---	0.00	30.028 
01:10	47.9	47.9	47.9	86	43.9	0	0	---	0.00	30.028 
01:15	48.0	48.0	48.0	87	44.3	0	3	292	0.00	30.031 
01:20	48.3	48.3	48.3	87	44.6	0	3	315	0.00	30.031 
01:25	48.6	48.6	48.6	86	44.6	0	3	315	0.00	30.031 
01:30	49.1	49.1	49.1	85	44.8	1	4	315	0.00	30.027 
01:35	49.2	49.2	49.2	85	44.9	1	3	315	0.00	30.027 
01:40	49.4	49.4	49.4	85	45.1	0	2	315	0.00	30.027 
01:45	49.4	49.4	49.4	85	45.1	0	1	315	0.00	30.029 
01:50	49.4	49.4	49.4	85	45.1	0	1	315	0.00	30.029 
01:55	49.4	49.4	49.4	85	45.1	0	1	315	0.00	30.029 
02:00	49.4	49.4	49.4	85	45.1	0	1	315	0.00	30.033 
02:05	49.4	49.4	49.4	85	45.1	0	1	315	0.00	30.033 
02:10	49.4	49.4	49.4	85	45.1	0	1	315	0.00	30.033 
02:15	49.4	49.4	49.4	85	45.1	0	2	315	0.00	30.033 
02:20	49.4	49.4	49.4	85	45.1	0	2	315	0.00	30.033 
02:25	49.5	49.5	49.5	85	45.2	0	1	315	0.00	30.033 
02:30	49.5	49.5	49.5	85	45.2	1	3	270	0.00	30.040 
02:35	49.5	49.5	49.5	84	44.9	1	4	270	0.00	30.040 
02:40	49.5	49.5	49.5	84	44.9	1	3	292	0.00	30.040 
02:45	49.5	49.5	49.5	83	44.6	1	3	292	0.00	30.038 
02:50	49.6	49.6	49.6	83	44.7	0	2	270	0.00	30.038 
02:55	49.6	49.6	49.6	83	44.7	1	3	292	0.00	30.038 
03:00	49.6	49.6	49.6	83	44.7	0	2	292	0.00	30.040 
03:05	49.6	49.6	49.6	83	44.7	1	4	292	0.00	30.040 
03:10	49.6	49.6	49.6	83	44.7	0	3	270	0.00	30.040 
03:15	49.6	49.6	49.6	83	44.7	0	4	270	0.00	30.042 
03:20	49.5	49.5	49.5	82	44.2	0	4	292	0.00	30.042 
03:25	49.5	49.5	49.5	82	44.2	0	2	292	0.00	30.042 
03:30	49.4	49.4	49.4	81	43.8	0	3	0	0.00	30.046 
03:35	49.2	49.2	49.2	80	43.3	0	3	292	0.00	30.046 
03:40	49.1	49.1	49.1	79	42.9	0	2	338	0.00	30.046 
03:45	48.9	48.9	48.9	78	42.3	0	2	315	0.00	30.045 
03:50	48.8	48.8	48.8	77	41.9	0	2	315	0.00	30.045 
03:55	48.8	48.8	48.8	77	41.9	0	2	315	0.00	30.045 
04:00	48.6	48.6	48.6	77	41.7	0	2	315	0.00	30.045 
04:05	48.6	48.6	48.6	77	41.7	0	1	315	0.00	30.045 
04:10	48.6	48.6	48.6	77	41.7	0	2	315	0.00	30.045 
04:15	48.6	48.6	48.6	77	41.7	0	1	338	0.00	30.047 
04:20	48.6	48.6	48.6	76	41.4	0	4	338	0.00	30.047 
04:25	48.6	48.6	48.6	75	41.0	0	2	22	0.00	30.047 
04:30	48.6	48.6	48.6	76	41.4	0	2	0	0.00	30.048 
04:35	48.8	48.8	48.8	76	41.6	0	1	0	0.00	30.048 
04:40	48.6	48.6	48.6	77	41.7	0	1	0	0.00	30.048 
04:45	48.6	48.6	48.6	77	41.7	0	0	---	0.00	30.048 
04:50	48.6	48.6	48.6	77	41.7	0	0	---	0.00	30.048 
04:55	48.5	48.5	48.5	78	42.0	0	0	---	0.00	30.048 
05:00	48.3	48.3	48.3	78	41.8	0	1	0	0.00	30.050 
05:05	48.3	48.3	48.3	79	42.1	0	0	---	0.00	30.050 
05:10	48.2	48.2	48.2	79	42.0	0	0	---	0.00	30.050 
05:15	48.0	48.0	48.0	79	41.8	0	1	0	0.00	30.052 
05:20	47.9	47.9	47.9	79	41.7	0	1	0	0.00	30.052 
05:25	47.7	47.7	47.7	79	41.5	0	0	---	0.00	30.052 
05:30	47.7	47.7	47.7	79	41.5	0	1	0	0.00	30.056 
05:35	47.7	47.7	47.7	79	41.5	0	1	0	0.00	30.056 
05:40	47.7	47.7	47.7	78	41.2	0	1	0	0.00	30.056 
05:45	47.9	47.9	47.9	78	41.4	0	0	---	0.00	30.059 
05:50	47.9	47.9	47.9	78	41.4	0	0	---	0.00	30.059 
05:55	47.9	47.9	47.9	78	41.4	0	0	---	0.00	30.059 
06:00	47.9	47.9	47.9	78	41.4	0	0	---	0.00	30.060 
06:05	47.9	47.9	47.9	78	41.4	0	0	---	0.00	30.060 
06:10	48.0	48.0	48.0	78	41.5	0	0	---	0.00	30.060 
06:15	48.0	48.0	48.0	78	41.5	0	0	---	0.00	30.066 
06:20	48.0	48.0	48.0	79	41.8	0	0	---	0.00	30.066 
06:25	48.0	48.0	48.0	78	41.5	0	0	---	0.00	30.066 
06:30	48.0	48.0	48.0	78	41.5	0	1	0	0.00	30.068 
06:35	48.0	48.0	48.0	78	41.5	0	1	0	0.00	30.068 
06:40	48.0	48.0	48.0	78	41.5	0	0	---	0.00	30.068 
06:45	48.0	48.0	48.0	78	41.5	0	0	---	0.00	30.074 
06:50	48.0	48.0	48.0	78	41.5	0	0	---	0.00	30.074 
06:55	48.0	48.0	48.0	79	41.8	0	1	0	0.00	30.074 
07:00	48.0	48.0	48.0	78	41.5	1	3	292	0.00	30.081 
07:05	48.0	48.0	48.0	78	41.5	0	2	292	0.00	30.081 
07:10	47.9	47.9	47.9	77	41.0	1	4	270	0.00	30.081 
07:15	47.9	47.9	47.9	76	40.7	1	3	292	0.00	30.084 
07:20	47.9	47.9	47.9	75	40.4	1	5	315	0.00	30.084 
07:25	47.7	47.7	47.7	75	40.2	0	4	45	0.00	30.084 
07:30	47.7	47.7	47.7	76	40.5	0	2	338	0.00	30.088 
07:35	47.7	47.7	47.7	76	40.5	0	2	338	0.00	30.088 
07:40	47.7	47.7	47.7	76	40.5	0	1	270	0.00	30.088 
07:45	47.7	47.7	47.7	76	40.5	0	2	270	0.00	30.097 
07:50	47.6	47.6	47.6	76	40.4	0	3	248	0.00	30.097 
07:55	47.6	47.6	47.6	75	40.1	0	2	248	0.00	30.097 
08:00	47.4	47.4	47.4	75	39.9	0	3	248	0.00	30.101 
08:05	47.4	47.4	47.4	75	39.9	0	2	248	0.00	30.101 
08:10	47.4	47.4	47.4	74	39.5	0	3	292	0.00	30.101 
08:15	47.4	47.4	47.4	74	39.5	1	4	292	0.00	30.104 
08:20	47.4	47.4	47.4	73	39.2	1	4	315	0.00	30.104 
08:25	47.4	47.4	47.4	73	39.2	0	2	315	0.00	30.104 
08:30	47.4	47.4	47.4	73	39.2	1	3	315	0.00	30.111 
08:35	47.4	47.4	47.4	74	39.5	1	4	270	0.00	30.111 
08:40	47.4	47.4	47.4	74	39.5	0	3	292	0.00	30.111 
08:45	47.3	47.3	47.3	73	39.1	1	4	292	0.00	30.116 
08:50	47.3	47.3	47.3	74	39.4	1	3	315	0.00	30.116 
08:55	47.3	47.3	47.3	74	39.4	0	2	315	0.00	30.116 
09:00	47.4	47.4	47.4	74	39.5	0	2	315	0.00	30.115 
09:05	47.4	47.4	47.4	74	39.5	0	2	315	0.00	30.115 
09:10	47.4	47.4	47.4	75	39.9	0	2	315	0.00	30.115 
09:15	47.4	47.4	47.4	75	39.9	0	2	315	0.00	30.120 
09:20	47.4	47.4	47.4	75	39.9	0	2	315	0.00	30.120 
09:25	47.4	47.4	47.4	75	39.9	0	3	315	0.00	30.120 
09:30	47.4	47.4	47.4	75	39.9	0	2	45	0.00	30.128 
09:35	47.3	47.3	47.3	76	40.1	0	2	45	0.00	30.128 
09:40	47.1	47.1	47.1	76	39.9	0	2	315	0.00	30.128 
09:45	47.0	47.0	47.0	78	40.5	0	1	315	0.00	30.132 
09:50	47.0	47.0	47.0	78	40.5	0	1	315	0.00	30.132 
09:55	46.8	46.8	46.8	79	40.6	0	1	315	0.00	30.132 
10:00	47.0	47.0	47.0	80	41.2	0	0	---	0.00	30.133 
10:05	47.0	47.0	47.0	81	41.5	0	1	315	0.00	30.133 
10:10	46.8	46.8	46.8	82	41.6	0	2	338	0.00	30.133 
10:15	46.2	46.2	46.2	82	41.0	0	1	112	0.00	30.140 
10:20	45.8	45.8	45.8	82	40.6	1	4	315	0.00	30.140 
10:25	45.7	45.7	45.7	83	40.8	0	3	225	0.00	30.140 
10:30	45.4	45.4	45.4	83	40.5	0	2	225	0.00	30.148 
10:35	45.4	45.4	45.4	83	40.5	0	1	338	0.00	30.148 
10:40	45.4	45.4	45.4	83	40.5	0	3	45	0.00	30.148 
10:45	45.5	45.5	45.5	83	40.6	0	3	270	0.00	30.148 
10:50	45.5	45.5	45.5	81	40.0	0	3	270	0.00	30.148 
10:55	45.8	45.8	45.8	80	40.0	0	1	45	0.00	30.148 
11:00	46.1	46.1	46.1	78	39.6	0	2	270	0.00	30.151 
11:05	46.2	46.2	46.2	77	39.4	0	2	270	0.00	30.151 
11:10	46.5	46.5	46.5	75	39.0	0	3	270	0.00	30.151 
11:15	46.8	46.8	46.8	74	39.0	1	5	112	0.00	30.155 
11:20	47.3	47.3	47.3	73	39.1	1	4	90	0.00	30.155 
11:25	47.4	47.4	47.4	69	37.7	1	4	315	0.00	30.155 
11:30	47.4	47.4	47.4	69	37.7	0	3	315	0.00	30.163 
11:35	47.6	47.6	47.6	68	37.6	1	3	315	0.00	30.163 
11:40	47.7	47.7	47.7	67	37.3	1	3	270	0.00	30.163 
11:45	47.9	47.9	47.9	66	37.1	0	3	45	0.00	30.164 
11:50	47.7	47.7	47.7	63	35.7	1	4	292	0.00	30.164 
11:55	47.7	47.7	47.7	65	36.5	1	3	338	0.00	30.164 
12:00	47.7	47.7	47.7	64	36.1	0	2	338	0.00	30.166 
12:05	48.2	48.2	48.2	63	36.2	1	5	315	0.00	30.166 
12:10	49.1	49.1	49.1	62	36.6	1	3	45	0.00	30.166 
12:15	49.4	49.4	49.4	62	36.9	1	3	270	0.00	30.158 
12:20	50.2	50.2	50.2	62	37.7	1	4	315	0.00	30.158 
12:25	50.4	50.4	50.4	59	36.6	0	3	315	0.00	30.158 
12:30	50.4	50.4	50.4	59	36.6	1	3	315	0.00	30.152 
12:35	50.1	50.1	50.1	58	35.9	1	3	315	0.00	30.152 
12:40	50.7	50.7	50.7	59	36.9	1	3	112	0.00	30.152 
12:45	50.7	50.7	50.7	57	36.0	1	3	0	0.00	30.149 
12:50	50.4	50.4	50.4	61	37.5	1	3	0	0.00	30.149 
12:55	50.7	50.7	50.7	58	36.5	2	5	315	0.00	30.149 
13:00	51.0	51.0	51.0	58	36.7	1	3	270	0.00	30.149 
13:05	51.6	51.6	51.6	56	36.4	0	2	270	0.00	30.149 
13:10	51.9	51.9	51.9	55	36.2	1	3	270	0.00	30.149 
13:15	51.7	51.7	51.7	57	37.0	2	6	270	0.00	30.138 
13:20	52.0	52.0	52.0	60	38.5	1	3	292	0.00	30.138 
13:25	51.7	51.7	51.7	55	36.1	1	3	315	0.00	30.138 
13:30	52.0	52.0	52.0	57	37.2	0	2	315	0.00	30.133 
13:35	52.2	52.2	52.2	56	37.0	1	4	248	0.00	30.133 
13:40	52.5	52.5	52.5	58	38.2	0	2	338	0.00	30.133 
13:45	52.6	52.6	52.6	54	36.4	1	3	338	0.00	30.129 
13:50	53.1	53.1	53.1	54	36.9	1	2	315	0.00	30.129 
13:55	52.9	52.9	52.9	54	36.7	1	2	315	0.00	30.129 
14:00	53.1	53.1	53.1	57	38.3	0	3	338	0.00	30.120 
14:05	53.2	53.2	53.2	55	37.5	1	2	338	0.00	30.120 
14:10	53.3	53.3	53.3	53	36.6	1	3	338	0.00	30.120 
14:15	53.3	53.3	53.3	54	37.1	0	2	315	0.00	30.115 
14:20	53.6	53.6	53.6	54	37.4	0	3	315	0.00	30.115 
14:25	54.1	54.1	54.1	53	37.4	2	3	270	0.00	30.115 
14:30	54.1	54.1	54.1	53	37.4	1	2	315	0.00	30.113 
14:35	53.8	53.8	53.8	51	36.1	1	4	315	0.00	30.113 
14:40	53.8	53.8	53.8	53	37.1	1	5	270	0.00	30.113 
14:45	53.9	53.9	53.9	53	37.2	1	6	270	0.00	30.110 
14:50	54.4	54.4	54.4	55	38.6	0	2	315	0.00	30.110 
14:55	54.4	54.4	54.4	52	37.1	1	3	0	0.00	30.110 
15:00	54.5	54.5	54.5	51	36.7	1	3	292	0.00	30.103 
15:05	54.7	54.7	54.7	52	37.4	0	3	315	0.00	30.103 
15:10	55.0	55.0	55.0	55	39.1	1	3	315	0.00	30.103 
15:15	55.3	55.3	55.3	53	38.5	0	2	292	0.00	30.101 
15:20	55.3	55.3	55.3	51	37.5	0	2	315	0.00	30.101 
15:25	55.1	55.1	55.1	50	36.8	0	2	315	0.00	30.101 
15:30	55.3	55.3	55.3	49	36.5	2	4	270	0.00	30.099 
15:35	55.3	55.3	55.3	50	37.0	1	3	270	0.00	30.099 
15:40	55.7	55.7	55.7	50	37.3	1	2	270	0.00	30.099 
15:45	56.0	56.0	56.0	49	37.1	0	3	22	0.00	30.097 
15:50	56.3	56.3	56.3	48	36.9	0	2	292	0.00	30.097 
15:55	56.2	56.2	56.2	49	37.3	1	2	315	0.00	30.097 
16:00	56.3	56.3	56.3	48	36.9	1	3	315	0.00	30.094 
16:05	56.3	56.3	56.3	48	36.9	0	2	315	0.00	30.094 
16:10	56.3	56.3	56.3	49	37.4	1	3	338	0.00	30.094 
16:15	56.5	56.5	56.5	51	38.6	0	3	315	0.00	30.094 
16:20	56.6	56.6	56.6	51	38.7	0	3	135	0.00	30.094 
16:25	56.6	56.6	56.6	51	38.7	1	3	22	0.00	30.094 
16:30	56.5	56.5	56.5	52	39.1	0	2	22	0.00	30.093 
16:35	56.6	56.6	56.6	51	38.7	1	3	292	0.00	30.093 
16:40	56.6	56.6	56.6	50	38.2	0	2	315	0.00	30.093 
16:45	56.6	56.6	56.6	49	37.7	0	2	315	0.00	30.094 
16:50	56.7	56.7	56.7	50	38.3	0	2	315	0.00	30.094 
16:55	56.9	56.9	56.9	49	37.9	1	3	292	0.00	30.094 
17:00	56.7	56.7	56.7	50	38.3	0	2	292	0.00	30.092 
17:05	56.7	56.7	56.7	50	38.3	0	2	292	0.00	30.092 
17:10	56.7	56.7	56.7	51	38.8	0	1	292	0.00	30.092 
17:15	56.9	56.9	56.9	51	39.0	0	2	0	0.00	30.089 
17:20	56.9	56.9	56.9	51	39.0	0	2	0	0.00	30.089 
17:25	57.0	57.0	57.0	50	38.5	0	2	315	0.00	30.089 
17:30	57.0	57.0	57.0	49	38.0	0	2	315	0.00	30.086 
17:35	57.2	57.2	57.2	50	38.7	1	2	315	0.00	30.086 
17:40	57.2	57.2	57.2	51	39.2	0	2	315	0.00	30.086 
17:45	57.0	57.0	57.0	52	39.5	0	1	315	0.00	30.086 
17:50	56.9	56.9	56.9	53	39.9	0	1	315	0.00	30.086 
17:55	56.9	56.9	56.9	51	39.0	0	2	315	0.00	30.086 
18:00	56.9	56.9	56.9	51	39.0	0	2	315	0.00	30.084 
18:05	56.9	56.9	56.9	52	39.5	0	1	315	0.00	30.084 
18:10	56.7	56.7	56.7	52	39.3	0	1	315	0.00	30.084 
18:15	56.6	56.6	56.6	52	39.2	0	1	315	0.00	30.087 
18:20	56.5	56.5	56.5	51	38.6	0	2	315	0.00	30.087 
18:25	56.5	56.5	56.5	51	38.6	0	1	315	0.00	30.087 
18:30	56.3	56.3	56.3	53	39.4	0	2	315	0.00	30.088 
18:35	56.2	56.2	56.2	52	38.8	0	1	315	0.00	30.088 
18:40	56.0	56.0	56.0	54	39.6	0	1	315	0.00	30.088 
18:45	55.7	55.7	55.7	55	39.8	0	0	---	0.00	30.086 
18:50	55.4	55.4	55.4	55	39.5	0	1	315	0.00	30.086 
18:55	55.3	55.3	55.3	55	39.4	0	1	315	0.00	30.086 
19:00	55.0	55.0	55.0	56	39.6	0	0	---	0.00	30.088 
19:05	54.7	54.7	54.7	58	40.2	0	0	---	0.00	30.088 
19:10	54.4	54.4	54.4	58	39.9	0	0	---	0.00	30.088 
19:15	53.9	53.9	53.9	60	40.3	0	0	---	0.00	30.089 
19:20	53.3	53.3	53.3	61	40.2	0	0	---	0.00	30.089 
19:25	52.9	52.9	52.9	62	40.2	0	0	---	0.00	30.089 
19:30	52.3	52.3	52.3	64	40.5	0	0	---	0.00	30.087 
19:35	51.7	51.7	51.7	66	40.7	0	0	---	0.00	30.087 
19:40	51.3	51.3	51.3	67	40.7	0	0	---	0.00	30.087 
19:45	50.7	50.7	50.7	69	40.9	0	0	---	0.00	30.089 
19:50	50.1	50.1	50.1	70	40.7	0	0	---	0.00	30.089 
19:55	49.6	49.6	49.6	72	40.9	0	0	---	0.00	30.089 
20:00	49.2	49.2	49.2	73	40.9	0	0	---	0.00	30.090 
20:05	48.8	48.8	48.8	75	41.2	0	0	---	0.00	30.090 
20:10	48.3	48.3	48.3	76	41.1	0	0	---	0.00	30.090 
20:15	47.9	47.9	47.9	77	41.0	0	0	---	0.00	30.092 
20:20	47.6	47.6	47.6	78	41.1	0	0	---	0.00	30.092 
20:25	47.1	47.1	47.1	79	40.9	0	0	---	0.00	30.092 
20:30	46.8	46.8	46.8	81	41.3	0	0	---	0.00	30.097 
20:35	46.5	46.5	46.5	81	41.0	0	0	---	0.00	30.097 
20:40	46.2	46.2	46.2	83	41.3	0	0	---	0.00	30.097 
20:45	46.0	46.0	46.0	83	41.1	0	0	---	0.00	30.102 
20:50	45.7	45.7	45.7	84	41.1	0	0	---	0.00	30.102 
20:55	45.4	45.4	45.4	85	41.2	0	0	---	0.00	30.102 
21:00	45.2	45.2	45.2	85	41.0	0	0	---	0.00	30.106 
21:05	44.9	44.9	44.9	86	41.0	0	0	---	0.00	30.106 
21:10	44.6	44.6	44.6	86	40.7	0	0	---	0.00	30.106 
21:15	44.5	44.5	44.5	87	40.9	0	0	---	0.00	30.107 
21:20	44.2	44.2	44.2	87	40.6	0	0	---	0.00	30.107 
21:25	44.1	44.1	44.1	87	40.5	0	0	---	0.00	30.107 
21:30	43.8	43.8	43.8	88	40.5	0	0	---	0.00	30.108 
21:35	43.6	43.6	43.6	88	40.3	0	0	---	0.00	30.108 
21:40	43.5	43.5	43.5	88	40.2	0	0	---	0.00	30.108 
21:45	43.3	43.3	43.3	89	40.3	0	0	---	0.00	30.110 
21:50	43.3	43.3	43.3	89	40.3	0	0	---	0.00	30.110 
21:55	43.2	43.2	43.2	89	40.2	0	0	---	0.00	30.110 
22:00	43.1	43.1	43.1	89	40.1	0	0	---	0.00	30.110 
22:05	42.9	42.9	42.9	89	39.9	0	0	---	0.00	30.110 
22:10	42.8	42.8	42.8	90	40.1	0	0	---	0.00	30.110 
22:15	42.6	42.6	42.6	90	39.9	0	0	---	0.00	30.119 
22:20	42.5	42.5	42.5	90	39.8	0	0	---	0.00	30.119 
22:25	42.3	42.3	42.3	90	39.6	0	0	---	0.00	30.119 
22:30	42.1	42.1	42.1	90	39.4	0	0	---	0.00	30.115 
22:35	41.9	41.9	41.9	90	39.2	0	0	---	0.00	30.115 
22:40	41.8	41.8	41.8	90	39.1	0	0	---	0.00	30.115 
22:45	41.6	41.6	41.6	91	39.2	0	0	---	0.00	30.114 
22:50	41.5	41.5	41.5	91	39.1	0	0	---	0.00	30.114 
22:55	41.3	41.3	41.3	91	38.9	0	0	---	0.00	30.114 
23:00	41.3	41.3	41.3	91	38.9	0	0	---	0.00	30.116 
23:05	41.2	41.2	41.2	91	38.8	0	0	---	0.00	30.116 
23:10	41.1	41.1	41.1	91	38.7	0	0	---	0.00	30.116 
23:15	41.1	41.1	41.1	92	39.0	0	0	---	0.00	30.115 
23:20	40.9	40.9	40.9	92	38.8	0	0	---	0.00	30.115 
23:25	40.8	40.8	40.8	92	38.7	0	0	---	0.00	30.115 
23:30	40.8	40.8	40.8	92	38.7	0	0	---	0.00	30.115 
23:35	40.6	40.6	40.6	92	38.5	0	0	---	0.00	30.115 
23:40	40.5	40.5	40.5	92	38.4	0	0	---	0.00	30.115 
23:45	40.2	40.2	40.2	92	38.1	0	0	---	0.00	30.117 
23:50	40.1	40.1	40.1	92	38.0	0	0	---	0.00	30.117 
23:55	39.9	39.9	39.9	92	37.8	0	0	---	0.00	30.117 

CoCoRaHS
IN-AL-39
A2 Web Hosting
Creative Commons License
GoDaddy
search engine by freefind advanced

loaded 2018-11-17 06:36:45 • last modified 2010-11-18 10:43:29
Privacy PolicyDisclaimer
• wx.awcolley.com is powered by PmWiki v.2002016 •
• all content (unless otherwise noted) © 2018 A W Colley